sensor_id;sensor_type;location;lat;lon;timestamp;temperature;humidity
32947;DHT22;54465;51.230;22.504;2022-11-20T00:00:27;0.80;85.70
32947;DHT22;54465;51.230;22.504;2022-11-20T00:03:30;0.80;85.50
32947;DHT22;54465;51.230;22.504;2022-11-20T00:06:32;0.80;85.50
32947;DHT22;54465;51.230;22.504;2022-11-20T00:09:43;0.70;85.60
32947;DHT22;54465;51.230;22.504;2022-11-20T00:12:47;0.80;85.80
32947;DHT22;54465;51.230;22.504;2022-11-20T00:15:56;0.80;85.90
32947;DHT22;54465;51.230;22.504;2022-11-20T00:19:00;0.80;85.90
32947;DHT22;54465;51.230;22.504;2022-11-20T00:22:02;0.90;86.00
32947;DHT22;54465;51.230;22.504;2022-11-20T00:25:07;0.90;85.90
32947;DHT22;54465;51.230;22.504;2022-11-20T00:28:09;0.90;85.80
32947;DHT22;54465;51.230;22.504;2022-11-20T00:31:12;0.90;85.60
32947;DHT22;54465;51.230;22.504;2022-11-20T00:34:15;0.90;85.70
32947;DHT22;54465;51.230;22.504;2022-11-20T00:37:17;1.00;85.70
32947;DHT22;54465;51.230;22.504;2022-11-20T00:40:20;1.00;85.50
32947;DHT22;54465;51.230;22.504;2022-11-20T00:43:23;0.90;85.30
32947;DHT22;54465;51.230;22.504;2022-11-20T00:46:26;0.90;85.40
32947;DHT22;54465;51.230;22.504;2022-11-20T00:49:29;0.90;85.60
32947;DHT22;54465;51.230;22.504;2022-11-20T00:52:32;1.00;85.80
32947;DHT22;54465;51.230;22.504;2022-11-20T00:55:37;1.00;85.80
32947;DHT22;54465;51.230;22.504;2022-11-20T00:58:40;1.10;85.90
32947;DHT22;54465;51.230;22.504;2022-11-20T01:01:43;1.10;86.00
32947;DHT22;54465;51.230;22.504;2022-11-20T01:04:46;1.30;86.10
32947;DHT22;54465;51.230;22.504;2022-11-20T01:07:48;1.40;86.10
32947;DHT22;54465;51.230;22.504;2022-11-20T01:10:53;1.40;86.00
32947;DHT22;54465;51.230;22.504;2022-11-20T01:14:03;1.50;86.10
32947;DHT22;54465;51.230;22.504;2022-11-20T01:17:06;1.60;86.20
32947;DHT22;54465;51.230;22.504;2022-11-20T01:20:09;1.80;86.40
32947;DHT22;54465;51.230;22.504;2022-11-20T01:23:12;1.90;86.40
32947;DHT22;54465;51.230;22.504;2022-11-20T01:26:17;2.00;86.30
32947;DHT22;54465;51.230;22.504;2022-11-20T01:29:21;2.10;86.20
32947;DHT22;54465;51.230;22.504;2022-11-20T01:32:24;2.20;86.40
32947;DHT22;54465;51.230;22.504;2022-11-20T01:35:26;2.40;86.70
32947;DHT22;54465;51.230;22.504;2022-11-20T01:38:28;2.50;86.20
32947;DHT22;54465;51.230;22.504;2022-11-20T01:41:33;2.50;85.70
32947;DHT22;54465;51.230;22.504;2022-11-20T01:44:55;2.50;85.60
32947;DHT22;54465;51.230;22.504;2022-11-20T01:47:57;2.60;85.90
32947;DHT22;54465;51.230;22.504;2022-11-20T01:51:01;2.60;86.20
32947;DHT22;54465;51.230;22.504;2022-11-20T01:54:08;2.70;86.00
32947;DHT22;54465;51.230;22.504;2022-11-20T01:57:13;2.70;85.90
32947;DHT22;54465;51.230;22.504;2022-11-20T02:00:18;2.70;85.80
32947;DHT22;54465;51.230;22.504;2022-11-20T02:03:21;2.80;85.90
32947;DHT22;54465;51.230;22.504;2022-11-20T02:06:26;2.70;85.80
32947;DHT22;54465;51.230;22.504;2022-11-20T02:09:32;2.70;85.80
32947;DHT22;54465;51.230;22.504;2022-11-20T02:12:35;2.80;85.90
32947;DHT22;54465;51.230;22.504;2022-11-20T02:15:52;2.80;85.80
32947;DHT22;54465;51.230;22.504;2022-11-20T02:18:55;2.90;85.80
32947;DHT22;54465;51.230;22.504;2022-11-20T02:22:04;2.90;85.90
32947;DHT22;54465;51.230;22.504;2022-11-20T02:25:11;2.90;85.80
32947;DHT22;54465;51.230;22.504;2022-11-20T02:28:14;2.90;85.80
32947;DHT22;54465;51.230;22.504;2022-11-20T02:31:17;2.90;85.70
32947;DHT22;54465;51.230;22.504;2022-11-20T02:34:20;2.90;85.70
32947;DHT22;54465;51.230;22.504;2022-11-20T02:37:23;3.00;85.80
32947;DHT22;54465;51.230;22.504;2022-11-20T02:40:30;3.00;85.80
32947;DHT22;54465;51.230;22.504;2022-11-20T02:43:32;3.00;85.90
32947;DHT22;54465;51.230;22.504;2022-11-20T02:46:34;3.10;86.00
32947;DHT22;54465;51.230;22.504;2022-11-20T02:49:37;3.10;86.00
32947;DHT22;54465;51.230;22.504;2022-11-20T02:52:39;3.10;85.90
32947;DHT22;54465;51.230;22.504;2022-11-20T02:55:44;3.20;86.00
32947;DHT22;54465;51.230;22.504;2022-11-20T02:58:46;3.20;86.00
32947;DHT22;54465;51.230;22.504;2022-11-20T03:01:49;3.30;86.20
32947;DHT22;54465;51.230;22.504;2022-11-20T03:04:51;3.30;86.00
32947;DHT22;54465;51.230;22.504;2022-11-20T03:07:53;3.40;86.10
32947;DHT22;54465;51.230;22.504;2022-11-20T03:10:57;3.40;86.00
32947;DHT22;54465;51.230;22.504;2022-11-20T03:14:03;3.40;85.90
32947;DHT22;54465;51.230;22.504;2022-11-20T03:17:06;3.50;85.80
32947;DHT22;54465;51.230;22.504;2022-11-20T03:20:10;3.50;85.90
32947;DHT22;54465;51.230;22.504;2022-11-20T03:23:12;3.50;85.90
32947;DHT22;54465;51.230;22.504;2022-11-20T03:26:19;3.60;85.80
32947;DHT22;54465;51.230;22.504;2022-11-20T03:29:21;3.60;85.80
32947;DHT22;54465;51.230;22.504;2022-11-20T03:32:24;3.60;85.60
32947;DHT22;54465;51.230;22.504;2022-11-20T03:35:27;3.60;85.40
32947;DHT22;54465;51.230;22.504;2022-11-20T03:38:29;3.60;85.50
32947;DHT22;54465;51.230;22.504;2022-11-20T03:41:39;3.60;85.60
32947;DHT22;54465;51.230;22.504;2022-11-20T03:44:42;3.60;85.80
32947;DHT22;54465;51.230;22.504;2022-11-20T03:47:45;3.60;85.90
32947;DHT22;54465;51.230;22.504;2022-11-20T03:50:47;3.60;86.40
32947;DHT22;54465;51.230;22.504;2022-11-20T03:53:51;3.80;86.90
32947;DHT22;54465;51.230;22.504;2022-11-20T03:56:55;3.90;86.50
32947;DHT22;54465;51.230;22.504;2022-11-20T03:59:57;4.10;86.40
32947;DHT22;54465;51.230;22.504;2022-11-20T04:03:00;4.20;86.20
32947;DHT22;54465;51.230;22.504;2022-11-20T04:06:03;4.20;85.90
32947;DHT22;54465;51.230;22.504;2022-11-20T04:09:06;4.30;85.60
32947;DHT22;54465;51.230;22.504;2022-11-20T04:12:10;4.30;85.30
32947;DHT22;54465;51.230;22.504;2022-11-20T04:15:12;4.20;85.30
32947;DHT22;54465;51.230;22.504;2022-11-20T04:18:15;4.20;84.80
32947;DHT22;54465;51.230;22.504;2022-11-20T04:21:17;4.00;84.50
32947;DHT22;54465;51.230;22.504;2022-11-20T04:24:20;3.80;84.60
32947;DHT22;54465;51.230;22.504;2022-11-20T04:27:27;3.70;85.50
32947;DHT22;54465;51.230;22.504;2022-11-20T04:30:30;3.70;85.20
32947;DHT22;54465;51.230;22.504;2022-11-20T04:33:33;3.60;85.10
32947;DHT22;54465;51.230;22.504;2022-11-20T04:36:36;3.50;85.10
32947;DHT22;54465;51.230;22.504;2022-11-20T04:39:39;3.50;85.10
32947;DHT22;54465;51.230;22.504;2022-11-20T04:42:45;3.40;85.10
32947;DHT22;54465;51.230;22.504;2022-11-20T04:45:50;3.30;85.20
32947;DHT22;54465;51.230;22.504;2022-11-20T04:48:53;3.20;85.10
32947;DHT22;54465;51.230;22.504;2022-11-20T04:51:56;3.20;85.20
32947;DHT22;54465;51.230;22.504;2022-11-20T04:54:58;3.20;85.40
32947;DHT22;54465;51.230;22.504;2022-11-20T04:58:02;3.10;85.50
32947;DHT22;54465;51.230;22.504;2022-11-20T05:01:06;3.10;85.60
32947;DHT22;54465;51.230;22.504;2022-11-20T05:04:10;3.00;85.60
32947;DHT22;54465;51.230;22.504;2022-11-20T05:07:13;3.00;85.70
32947;DHT22;54465;51.230;22.504;2022-11-20T05:10:16;3.00;85.70
32947;DHT22;54465;51.230;22.504;2022-11-20T05:13:20;2.90;85.80
32947;DHT22;54465;51.230;22.504;2022-11-20T05:16:23;2.90;85.80
32947;DHT22;54465;51.230;22.504;2022-11-20T05:19:26;2.80;85.80
32947;DHT22;54465;51.230;22.504;2022-11-20T05:22:28;2.80;85.90
32947;DHT22;54465;51.230;22.504;2022-11-20T05:25:34;2.80;85.90
32947;DHT22;54465;51.230;22.504;2022-11-20T05:28:38;2.70;85.90
32947;DHT22;54465;51.230;22.504;2022-11-20T05:31:43;2.80;86.00
32947;DHT22;54465;51.230;22.504;2022-11-20T05:34:46;2.70;85.90
32947;DHT22;54465;51.230;22.504;2022-11-20T05:37:49;2.60;86.60
32947;DHT22;54465;51.230;22.504;2022-11-20T05:40:51;2.60;86.00
32947;DHT22;54465;51.230;22.504;2022-11-20T05:43:56;2.60;86.00
32947;DHT22;54465;51.230;22.504;2022-11-20T05:46:58;2.50;86.00
32947;DHT22;54465;51.230;22.504;2022-11-20T05:50:01;2.50;86.10
32947;DHT22;54465;51.230;22.504;2022-11-20T05:53:04;2.40;86.20
32947;DHT22;54465;51.230;22.504;2022-11-20T05:56:09;2.40;86.20
32947;DHT22;54465;51.230;22.504;2022-11-20T05:59:13;2.30;86.20
32947;DHT22;54465;51.230;22.504;2022-11-20T06:02:15;2.30;86.30
32947;DHT22;54465;51.230;22.504;2022-11-20T06:05:19;2.30;86.20
32947;DHT22;54465;51.230;22.504;2022-11-20T06:08:23;2.20;86.20
32947;DHT22;54465;51.230;22.504;2022-11-20T06:11:27;2.20;86.30
32947;DHT22;54465;51.230;22.504;2022-11-20T06:14:31;2.20;87.20
32947;DHT22;54465;51.230;22.504;2022-11-20T06:17:33;2.20;86.40
32947;DHT22;54465;51.230;22.504;2022-11-20T06:20:36;2.10;86.40
32947;DHT22;54465;51.230;22.504;2022-11-20T06:23:38;2.10;86.40
32947;DHT22;54465;51.230;22.504;2022-11-20T06:26:41;2.10;86.50
32947;DHT22;54465;51.230;22.504;2022-11-20T06:29:45;2.00;86.50
32947;DHT22;54465;51.230;22.504;2022-11-20T06:32:48;2.00;86.60
32947;DHT22;54465;51.230;22.504;2022-11-20T06:35:51;2.00;86.70
32947;DHT22;54465;51.230;22.504;2022-11-20T06:38:54;2.00;86.80
32947;DHT22;54465;51.230;22.504;2022-11-20T06:41:56;2.00;86.90
32947;DHT22;54465;51.230;22.504;2022-11-20T06:45:01;2.00;86.90
32947;DHT22;54465;51.230;22.504;2022-11-20T06:48:07;2.00;86.90
32947;DHT22;54465;51.230;22.504;2022-11-20T06:51:10;2.00;87.00
32947;DHT22;54465;51.230;22.504;2022-11-20T06:54:13;2.00;87.00
32947;DHT22;54465;51.230;22.504;2022-11-20T06:57:15;2.00;87.10
32947;DHT22;54465;51.230;22.504;2022-11-20T07:00:21;2.10;87.20
32947;DHT22;54465;51.230;22.504;2022-11-20T07:03:24;2.10;87.30
32947;DHT22;54465;51.230;22.504;2022-11-20T07:06:27;2.20;87.60
32947;DHT22;54465;51.230;22.504;2022-11-20T07:09:30;2.30;87.70
32947;DHT22;54465;51.230;22.504;2022-11-20T07:12:32;2.40;87.80
32947;DHT22;54465;51.230;22.504;2022-11-20T07:15:36;2.50;87.70
32947;DHT22;54465;51.230;22.504;2022-11-20T07:18:38;2.50;87.70
32947;DHT22;54465;51.230;22.504;2022-11-20T07:21:41;2.60;88.40
32947;DHT22;54465;51.230;22.504;2022-11-20T07:24:44;2.70;87.80
32947;DHT22;54465;51.230;22.504;2022-11-20T07:27:48;2.80;87.90
32947;DHT22;54465;51.230;22.504;2022-11-20T07:30:53;2.90;88.30
32947;DHT22;54465;51.230;22.504;2022-11-20T07:33:55;3.10;88.20
32947;DHT22;54465;51.230;22.504;2022-11-20T07:36:58;3.20;87.70
32947;DHT22;54465;51.230;22.504;2022-11-20T07:40:00;3.30;87.50
32947;DHT22;54465;51.230;22.504;2022-11-20T07:43:02;3.30;87.60
32947;DHT22;54465;51.230;22.504;2022-11-20T07:46:06;3.30;87.60
32947;DHT22;54465;51.230;22.504;2022-11-20T07:49:09;3.40;87.80
32947;DHT22;54465;51.230;22.504;2022-11-20T07:52:11;3.50;87.80
32947;DHT22;54465;51.230;22.504;2022-11-20T07:55:14;3.50;87.70
32947;DHT22;54465;51.230;22.504;2022-11-20T07:58:17;3.50;87.80
32947;DHT22;54465;51.230;22.504;2022-11-20T08:01:21;3.60;87.70
32947;DHT22;54465;51.230;22.504;2022-11-20T08:04:23;3.60;87.70
32947;DHT22;54465;51.230;22.504;2022-11-20T08:07:25;3.70;87.90
32947;DHT22;54465;51.230;22.504;2022-11-20T08:10:28;3.70;88.20
32947;DHT22;54465;51.230;22.504;2022-11-20T08:13:30;3.80;88.30
32947;DHT22;54465;51.230;22.504;2022-11-20T08:16:52;3.90;88.40
32947;DHT22;54465;51.230;22.504;2022-11-20T08:19:55;4.00;88.40
32947;DHT22;54465;51.230;22.504;2022-11-20T08:22:58;4.10;88.60
32947;DHT22;54465;51.230;22.504;2022-11-20T08:26:04;4.20;88.10
32947;DHT22;54465;51.230;22.504;2022-11-20T08:29:07;4.20;87.90
32947;DHT22;54465;51.230;22.504;2022-11-20T08:32:11;4.30;88.60
32947;DHT22;54465;51.230;22.504;2022-11-20T08:35:15;4.40;88.70
32947;DHT22;54465;51.230;22.504;2022-11-20T08:38:18;4.50;88.80
32947;DHT22;54465;51.230;22.504;2022-11-20T08:41:21;4.50;88.70
32947;DHT22;54465;51.230;22.504;2022-11-20T08:44:29;4.60;88.70
32947;DHT22;54465;51.230;22.504;2022-11-20T08:47:33;4.60;88.60
32947;DHT22;54465;51.230;22.504;2022-11-20T08:50:36;4.70;88.60
32947;DHT22;54465;51.230;22.504;2022-11-20T08:53:38;4.70;88.50
32947;DHT22;54465;51.230;22.504;2022-11-20T08:56:41;4.70;88.40
32947;DHT22;54465;51.230;22.504;2022-11-20T08:59:44;4.70;88.50
32947;DHT22;54465;51.230;22.504;2022-11-20T09:02:48;4.70;88.50
32947;DHT22;54465;51.230;22.504;2022-11-20T09:05:56;4.70;88.50
32947;DHT22;54465;51.230;22.504;2022-11-20T09:08:59;4.70;89.40
32947;DHT22;54465;51.230;22.504;2022-11-20T09:12:02;4.80;88.70
32947;DHT22;54465;51.230;22.504;2022-11-20T09:15:06;4.80;88.60
32947;DHT22;54465;51.230;22.504;2022-11-20T09:18:11;4.70;88.70
32947;DHT22;54465;51.230;22.504;2022-11-20T09:21:13;4.70;88.80
32947;DHT22;54465;51.230;22.504;2022-11-20T09:24:16;4.70;88.80
32947;DHT22;54465;51.230;22.504;2022-11-20T09:27:21;4.70;88.80
32947;DHT22;54465;51.230;22.504;2022-11-20T09:30:25;4.70;88.80
32947;DHT22;54465;51.230;22.504;2022-11-20T09:33:29;4.60;88.70
32947;DHT22;54465;51.230;22.504;2022-11-20T09:36:32;4.60;88.50
32947;DHT22;54465;51.230;22.504;2022-11-20T09:39:35;4.60;88.70
32947;DHT22;54465;51.230;22.504;2022-11-20T09:42:43;4.50;88.90
32947;DHT22;54465;51.230;22.504;2022-11-20T09:46:00;4.60;89.20
32947;DHT22;54465;51.230;22.504;2022-11-20T09:49:19;4.60;89.30
32947;DHT22;54465;51.230;22.504;2022-11-20T09:52:33;4.60;89.30
32947;DHT22;54465;51.230;22.504;2022-11-20T09:55:39;4.60;89.00
32947;DHT22;54465;51.230;22.504;2022-11-20T09:58:43;4.70;89.20
32947;DHT22;54465;51.230;22.504;2022-11-20T10:01:46;4.70;89.10
32947;DHT22;54465;51.230;22.504;2022-11-20T10:04:55;4.70;89.10
32947;DHT22;54465;51.230;22.504;2022-11-20T10:08:14;4.70;89.00
32947;DHT22;54465;51.230;22.504;2022-11-20T10:11:21;4.70;89.30
32947;DHT22;54465;51.230;22.504;2022-11-20T10:14:36;4.80;89.50
32947;DHT22;54465;51.230;22.504;2022-11-20T10:18:11;4.80;89.60
32947;DHT22;54465;51.230;22.504;2022-11-20T10:21:37;4.80;89.70
32947;DHT22;54465;51.230;22.504;2022-11-20T10:24:54;4.90;89.60
32947;DHT22;54465;51.230;22.504;2022-11-20T10:28:20;4.90;89.70
32947;DHT22;54465;51.230;22.504;2022-11-20T10:31:45;4.90;89.70
32947;DHT22;54465;51.230;22.504;2022-11-20T10:34:52;5.00;89.60
32947;DHT22;54465;51.230;22.504;2022-11-20T10:37:59;5.00;89.40
32947;DHT22;54465;51.230;22.504;2022-11-20T10:41:02;5.00;89.30
32947;DHT22;54465;51.230;22.504;2022-11-20T10:44:21;5.00;89.40
32947;DHT22;54465;51.230;22.504;2022-11-20T10:47:39;5.00;89.50
32947;DHT22;54465;51.230;22.504;2022-11-20T10:50:52;4.90;89.60
32947;DHT22;54465;51.230;22.504;2022-11-20T10:57:50;5.00;89.90
32947;DHT22;54465;51.230;22.504;2022-11-20T11:01:03;5.00;90.10
32947;DHT22;54465;51.230;22.504;2022-11-20T11:04:18;5.10;90.30
32947;DHT22;54465;51.230;22.504;2022-11-20T11:07:27;5.30;90.20
32947;DHT22;54465;51.230;22.504;2022-11-20T11:10:36;5.40;90.20
32947;DHT22;54465;51.230;22.504;2022-11-20T11:13:43;5.50;90.10
32947;DHT22;54465;51.230;22.504;2022-11-20T11:16:50;5.60;90.30
32947;DHT22;54465;51.230;22.504;2022-11-20T11:20:03;5.70;89.80
32947;DHT22;54465;51.230;22.504;2022-11-20T11:23:22;5.70;89.70
32947;DHT22;54465;51.230;22.504;2022-11-20T11:26:28;5.70;89.40
32947;DHT22;54465;51.230;22.504;2022-11-20T11:29:33;5.70;89.20
32947;DHT22;54465;51.230;22.504;2022-11-20T11:32:37;5.70;89.30
32947;DHT22;54465;51.230;22.504;2022-11-20T11:35:45;5.70;89.20
32947;DHT22;54465;51.230;22.504;2022-11-20T11:38:51;5.60;89.00
32947;DHT22;54465;51.230;22.504;2022-11-20T11:41:55;5.60;88.90
32947;DHT22;54465;51.230;22.504;2022-11-20T11:45:05;5.50;89.00
32947;DHT22;54465;51.230;22.504;2022-11-20T11:48:09;5.50;89.10
32947;DHT22;54465;51.230;22.504;2022-11-20T11:51:12;5.40;89.20
32947;DHT22;54465;51.230;22.504;2022-11-20T11:54:24;5.40;89.30
32947;DHT22;54465;51.230;22.504;2022-11-20T11:57:33;5.30;89.20
32947;DHT22;54465;51.230;22.504;2022-11-20T12:00:51;5.30;89.10
32947;DHT22;54465;51.230;22.504;2022-11-20T12:04:04;5.30;89.30
32947;DHT22;54465;51.230;22.504;2022-11-20T12:07:11;5.30;89.40
32947;DHT22;54465;51.230;22.504;2022-11-20T12:10:20;5.30;89.40
32947;DHT22;54465;51.230;22.504;2022-11-20T12:13:41;5.30;89.50
32947;DHT22;54465;51.230;22.504;2022-11-20T12:16:46;5.30;89.60
32947;DHT22;54465;51.230;22.504;2022-11-20T12:19:48;5.30;89.40
32947;DHT22;54465;51.230;22.504;2022-11-20T12:22:56;5.30;89.20
32947;DHT22;54465;51.230;22.504;2022-11-20T12:26:08;5.20;89.00
32947;DHT22;54465;51.230;22.504;2022-11-20T12:29:23;5.20;89.00
32947;DHT22;54465;51.230;22.504;2022-11-20T12:32:54;5.20;89.10
32947;DHT22;54465;51.230;22.504;2022-11-20T12:36:07;5.10;89.20
32947;DHT22;54465;51.230;22.504;2022-11-20T12:39:31;5.10;89.30
32947;DHT22;54465;51.230;22.504;2022-11-20T12:42:46;5.10;89.40
32947;DHT22;54465;51.230;22.504;2022-11-20T12:46:20;5.10;89.50
32947;DHT22;54465;51.230;22.504;2022-11-20T12:49:34;5.20;89.50
32947;DHT22;54465;51.230;22.504;2022-11-20T12:52:48;5.10;89.20
32947;DHT22;54465;51.230;22.504;2022-11-20T12:56:02;5.00;89.10
32947;DHT22;54465;51.230;22.504;2022-11-20T13:02:41;4.90;89.10
32947;DHT22;54465;51.230;22.504;2022-11-20T13:06:01;4.90;89.10
32947;DHT22;54465;51.230;22.504;2022-11-20T13:09:08;4.90;89.00
32947;DHT22;54465;51.230;22.504;2022-11-20T13:12:17;4.90;89.10
32947;DHT22;54465;51.230;22.504;2022-11-20T13:15:34;4.80;88.90
32947;DHT22;54465;51.230;22.504;2022-11-20T13:18:41;4.80;88.90
32947;DHT22;54465;51.230;22.504;2022-11-20T13:21:48;4.80;88.90
32947;DHT22;54465;51.230;22.504;2022-11-20T13:24:53;4.70;88.80
32947;DHT22;54465;51.230;22.504;2022-11-20T13:27:57;4.70;89.80
32947;DHT22;54465;51.230;22.504;2022-11-20T13:31:00;4.80;89.40
32947;DHT22;54465;51.230;22.504;2022-11-20T13:34:06;4.80;89.20
32947;DHT22;54465;51.230;22.504;2022-11-20T13:37:27;4.80;89.20
32947;DHT22;54465;51.230;22.504;2022-11-20T13:40:29;4.80;89.20
32947;DHT22;54465;51.230;22.504;2022-11-20T13:43:36;4.80;89.20
32947;DHT22;54465;51.230;22.504;2022-11-20T13:46:41;4.80;89.20
32947;DHT22;54465;51.230;22.504;2022-11-20T13:49:47;4.80;89.20
32947;DHT22;54465;51.230;22.504;2022-11-20T13:52:55;4.80;89.30
32947;DHT22;54465;51.230;22.504;2022-11-20T13:56:05;4.80;89.50
32947;DHT22;54465;51.230;22.504;2022-11-20T13:59:23;4.90;89.40
32947;DHT22;54465;51.230;22.504;2022-11-20T14:02:30;4.90;89.30
32947;DHT22;54465;51.230;22.504;2022-11-20T14:05:36;4.90;89.10
32947;DHT22;54465;51.230;22.504;2022-11-20T14:08:49;4.90;89.00
32947;DHT22;54465;51.230;22.504;2022-11-20T14:11:57;4.90;88.90
32947;DHT22;54465;51.230;22.504;2022-11-20T14:15:01;4.90;89.00
32947;DHT22;54465;51.230;22.504;2022-11-20T14:18:14;4.80;89.00
32947;DHT22;54465;51.230;22.504;2022-11-20T14:21:25;4.80;89.20
32947;DHT22;54465;51.230;22.504;2022-11-20T14:24:36;4.80;89.50
32947;DHT22;54465;51.230;22.504;2022-11-20T14:27:40;4.80;89.60
32947;DHT22;54465;51.230;22.504;2022-11-20T14:30:50;4.70;89.70
32947;DHT22;54465;51.230;22.504;2022-11-20T14:33:59;4.80;90.20
32947;DHT22;54465;51.230;22.504;2022-11-20T14:37:09;4.80;89.70
32947;DHT22;54465;51.230;22.504;2022-11-20T14:40:30;4.80;89.80
32947;DHT22;54465;51.230;22.504;2022-11-20T14:43:36;4.70;90.10
32947;DHT22;54465;51.230;22.504;2022-11-20T14:46:40;4.80;89.80
32947;DHT22;54465;51.230;22.504;2022-11-20T14:49:44;4.70;89.40
32947;DHT22;54465;51.230;22.504;2022-11-20T14:52:53;4.70;89.20
32947;DHT22;54465;51.230;22.504;2022-11-20T14:56:01;4.60;89.10
32947;DHT22;54465;51.230;22.504;2022-11-20T14:59:03;4.50;89.10
32947;DHT22;54465;51.230;22.504;2022-11-20T15:02:09;4.40;89.00
32947;DHT22;54465;51.230;22.504;2022-11-20T15:05:14;4.40;89.00
32947;DHT22;54465;51.230;22.504;2022-11-20T15:08:17;4.30;89.20
32947;DHT22;54465;51.230;22.504;2022-11-20T15:11:28;4.30;89.20
32947;DHT22;54465;51.230;22.504;2022-11-20T15:14:32;4.20;89.10
32947;DHT22;54465;51.230;22.504;2022-11-20T15:17:37;4.20;89.10
32947;DHT22;54465;51.230;22.504;2022-11-20T15:20:42;4.10;89.10
32947;DHT22;54465;51.230;22.504;2022-11-20T15:23:45;4.10;89.30
32947;DHT22;54465;51.230;22.504;2022-11-20T15:26:51;4.20;89.30
32947;DHT22;54465;51.230;22.504;2022-11-20T15:29:55;4.20;89.10
32947;DHT22;54465;51.230;22.504;2022-11-20T15:32:57;4.20;89.10
32947;DHT22;54465;51.230;22.504;2022-11-20T15:36:01;4.10;89.00
32947;DHT22;54465;51.230;22.504;2022-11-20T15:39:07;4.10;89.30
32947;DHT22;54465;51.230;22.504;2022-11-20T15:42:12;4.10;89.20
32947;DHT22;54465;51.230;22.504;2022-11-20T15:45:15;4.10;90.00
32947;DHT22;54465;51.230;22.504;2022-11-20T15:48:20;4.10;89.30
32947;DHT22;54465;51.230;22.504;2022-11-20T15:51:26;4.00;89.20
32947;DHT22;54465;51.230;22.504;2022-11-20T15:54:28;4.00;89.20
32947;DHT22;54465;51.230;22.504;2022-11-20T15:57:33;4.00;89.20
32947;DHT22;54465;51.230;22.504;2022-11-20T16:00:36;3.90;89.30
32947;DHT22;54465;51.230;22.504;2022-11-20T16:03:38;3.90;89.40
32947;DHT22;54465;51.230;22.504;2022-11-20T16:06:41;3.90;89.80
32947;DHT22;54465;51.230;22.504;2022-11-20T16:09:44;4.00;90.00
32947;DHT22;54465;51.230;22.504;2022-11-20T16:12:48;4.10;90.10
32947;DHT22;54465;51.230;22.504;2022-11-20T16:16:11;4.20;90.00
32947;DHT22;54465;51.230;22.504;2022-11-20T16:19:15;4.20;89.80
32947;DHT22;54465;51.230;22.504;2022-11-20T16:22:18;4.10;89.50
32947;DHT22;54465;51.230;22.504;2022-11-20T16:25:27;4.10;89.50
32947;DHT22;54465;51.230;22.504;2022-11-20T16:29:36;4.00;89.70
32947;DHT22;54465;51.230;22.504;2022-11-20T16:32:41;3.90;89.80
32947;DHT22;54465;51.230;22.504;2022-11-20T16:35:44;3.90;90.00
32947;DHT22;54465;51.230;22.504;2022-11-20T16:38:52;3.90;90.10
32947;DHT22;54465;51.230;22.504;2022-11-20T16:41:56;3.90;90.10
32947;DHT22;54465;51.230;22.504;2022-11-20T16:49:14;3.90;89.50
32947;DHT22;54465;51.230;22.504;2022-11-20T16:52:17;3.70;89.40
32947;DHT22;54465;51.230;22.504;2022-11-20T16:55:20;3.60;89.50
32947;DHT22;54465;51.230;22.504;2022-11-20T16:58:24;3.50;89.70
32947;DHT22;54465;51.230;22.504;2022-11-20T17:01:29;3.50;89.80
32947;DHT22;54465;51.230;22.504;2022-11-20T17:04:36;3.40;89.80
32947;DHT22;54465;51.230;22.504;2022-11-20T17:07:40;3.30;89.90
32947;DHT22;54465;51.230;22.504;2022-11-20T17:10:43;3.30;90.00
32947;DHT22;54465;51.230;22.504;2022-11-20T17:14:17;3.20;90.00
32947;DHT22;54465;51.230;22.504;2022-11-20T17:17:30;3.20;90.00
32947;DHT22;54465;51.230;22.504;2022-11-20T17:20:35;3.10;90.00
32947;DHT22;54465;51.230;22.504;2022-11-20T17:23:41;3.10;90.10
32947;DHT22;54465;51.230;22.504;2022-11-20T17:26:48;3.10;90.20
32947;DHT22;54465;51.230;22.504;2022-11-20T17:29:52;3.10;90.40
32947;DHT22;54465;51.230;22.504;2022-11-20T17:32:56;3.20;90.60
32947;DHT22;54465;51.230;22.504;2022-11-20T17:36:00;3.40;90.70
32947;DHT22;54465;51.230;22.504;2022-11-20T17:39:02;3.60;90.60
32947;DHT22;54465;51.230;22.504;2022-11-20T17:42:06;3.70;90.50
32947;DHT22;54465;51.230;22.504;2022-11-20T17:45:34;3.80;90.40
32947;DHT22;54465;51.230;22.504;2022-11-20T17:48:51;3.90;90.20
32947;DHT22;54465;51.230;22.504;2022-11-20T17:51:55;3.80;90.00
32947;DHT22;54465;51.230;22.504;2022-11-20T17:55:03;3.80;90.40
32947;DHT22;54465;51.230;22.504;2022-11-20T17:58:05;3.80;90.30
32947;DHT22;54465;51.230;22.504;2022-11-20T18:01:08;3.90;90.00
32947;DHT22;54465;51.230;22.504;2022-11-20T18:04:10;3.80;89.90
32947;DHT22;54465;51.230;22.504;2022-11-20T18:07:15;3.70;90.00
32947;DHT22;54465;51.230;22.504;2022-11-20T18:10:21;3.70;90.10
32947;DHT22;54465;51.230;22.504;2022-11-20T18:13:24;3.60;90.10
32947;DHT22;54465;51.230;22.504;2022-11-20T18:16:53;3.60;90.10
32947;DHT22;54465;51.230;22.504;2022-11-20T18:19:57;3.50;90.20
32947;DHT22;54465;51.230;22.504;2022-11-20T18:23:06;3.50;90.20
32947;DHT22;54465;51.230;22.504;2022-11-20T18:26:10;3.50;90.30
32947;DHT22;54465;51.230;22.504;2022-11-20T18:29:13;3.50;90.30
32947;DHT22;54465;51.230;22.504;2022-11-20T18:32:19;3.50;90.40
32947;DHT22;54465;51.230;22.504;2022-11-20T18:35:21;3.60;90.50
32947;DHT22;54465;51.230;22.504;2022-11-20T18:38:27;3.60;90.70
32947;DHT22;54465;51.230;22.504;2022-11-20T18:41:30;3.50;90.40
32947;DHT22;54465;51.230;22.504;2022-11-20T18:44:50;3.60;90.50
32947;DHT22;54465;51.230;22.504;2022-11-20T18:47:55;3.60;90.50
32947;DHT22;54465;51.230;22.504;2022-11-20T18:51:04;3.60;90.60
32947;DHT22;54465;51.230;22.504;2022-11-20T18:54:08;3.60;90.60
32947;DHT22;54465;51.230;22.504;2022-11-20T18:57:11;3.60;90.70
32947;DHT22;54465;51.230;22.504;2022-11-20T19:00:16;3.70;90.70
32947;DHT22;54465;51.230;22.504;2022-11-20T19:03:22;3.60;90.70
32947;DHT22;54465;51.230;22.504;2022-11-20T19:06:29;3.60;90.80
32947;DHT22;54465;51.230;22.504;2022-11-20T19:09:34;3.70;90.90
32947;DHT22;54465;51.230;22.504;2022-11-20T19:12:37;3.70;90.90
32947;DHT22;54465;51.230;22.504;2022-11-20T19:15:39;3.70;90.90
32947;DHT22;54465;51.230;22.504;2022-11-20T19:18:43;3.70;90.90
32947;DHT22;54465;51.230;22.504;2022-11-20T19:21:47;3.70;91.00
32947;DHT22;54465;51.230;22.504;2022-11-20T19:24:55;3.70;91.10
32947;DHT22;54465;51.230;22.504;2022-11-20T19:28:01;3.70;91.10
32947;DHT22;54465;51.230;22.504;2022-11-20T19:31:05;3.80;91.20
32947;DHT22;54465;51.230;22.504;2022-11-20T19:34:08;3.80;91.20
32947;DHT22;54465;51.230;22.504;2022-11-20T19:37:11;3.80;91.10
32947;DHT22;54465;51.230;22.504;2022-11-20T19:40:16;3.80;91.20
32947;DHT22;54465;51.230;22.504;2022-11-20T19:43:19;3.90;91.30
32947;DHT22;54465;51.230;22.504;2022-11-20T19:46:21;3.90;91.30